Time;durP1;ratioP1;P1;durP2;ratioP2;P2;SDS_P1;SDS_P2;PMS_P1;PMS_P2;Temp;Humidity;BMP_temperature;BMP_pressure;BME280_temperature;BME280_humidity;BME280_pressure;Samples;Min_cycle;Max_cycle;Signal;HPM_P1;HPM_P2
2021/09/02 00:07:31;;;;;;;11.03;5.17;;;13.10;99.90;;;;;;20879935;28;20112;-85
2021/09/02 00:17:32;;;;;;;11.03;5.53;;;13.00;99.90;;;;;;20912710;28;20044;-81
2021/09/02 00:27:33;;;;;;;10.23;5.50;;;13.00;99.90;;;;;;20893730;28;20029;-84
2021/09/02 00:37:34;;;;;;;9.73;5.13;;;13.20;99.90;;;;;;20898263;28;20033;-81
2021/09/02 00:47:35;;;;;;;9.37;5.70;;;13.00;99.90;;;;;;20927126;28;20485;-82
2021/09/02 00:57:36;;;;;;;8.97;4.90;;;13.10;99.90;;;;;;20909296;28;20044;-82
2021/09/02 01:07:38;;;;;;;8.35;5.43;;;13.10;99.90;;;;;;20925637;28;20393;-82
2021/09/02 01:17:40;;;;;;;8.43;5.37;;;12.90;99.90;;;;;;20908432;28;20040;-83
2021/09/02 01:27:44;;;;;;;8.07;5.15;;;12.80;99.90;;;;;;20924430;28;20095;-82
2021/09/02 01:37:47;;;;;;;11.80;5.00;;;12.90;99.90;;;;;;20925759;28;20033;-81
2021/09/02 01:47:48;;;;;;;7.43;5.25;;;12.80;99.90;;;;;;20924421;28;20052;-81
2021/09/02 01:57:50;;;;;;;9.70;5.53;;;12.70;99.90;;;;;;20906787;28;20061;-82
2021/09/02 02:07:51;;;;;;;20.85;5.95;;;12.10;99.90;;;;;;20905068;28;20033;-81
2021/09/02 02:17:53;;;;;;;15.73;5.77;;;11.90;99.90;;;;;;20905318;28;20032;-83
2021/09/02 02:27:54;;;;;;;11.30;4.97;;;12.10;99.90;;;;;;20921008;28;20635;-81
2021/09/02 02:37:55;;;;;;;8.53;5.47;;;12.00;99.90;;;;;;20903770;28;20041;-80
2021/09/02 02:47:56;;;;;;;9.57;5.67;;;12.00;99.90;;;;;;20904243;28;20187;-79
2021/09/02 02:57:57;;;;;;;12.90;5.50;;;11.60;99.90;;;;;;20904138;28;20056;-81
2021/09/02 03:07:57;;;;;;;10.70;5.23;;;11.70;99.90;;;;;;20901376;28;20104;-83
2021/09/02 03:17:58;;;;;;;93.33;9.13;;;11.90;99.90;;;;;;20897593;28;20397;-83
2021/09/02 03:28:00;;;;;;;7.47;5.03;;;11.30;99.90;;;;;;20899297;28;20112;-82
2021/09/02 03:38:01;;;;;;;11.02;5.85;;;11.20;99.90;;;;;;20917489;28;20060;-83
2021/09/02 03:48:02;;;;;;;7.47;4.97;;;11.20;99.90;;;;;;20880542;28;20477;-84
2021/09/02 03:58:06;;;;;;;13.10;4.90;;;11.40;99.90;;;;;;20896167;28;20128;-83
2021/09/02 04:08:07;;;;;;;9.55;5.65;;;12.00;99.90;;;;;;20896420;28;20078;-85
2021/09/02 04:18:08;;;;;;;10.37;6.23;;;12.10;99.90;;;;;;20879739;28;20028;-81
2021/09/02 04:28:09;;;;;;;9.40;5.20;;;11.00;99.90;;;;;;20879704;28;20559;-83
2021/09/02 04:38:09;;;;;;;9.87;5.67;;;11.50;99.90;;;;;;20878908;28;20037;-80
2021/09/02 04:48:13;;;;;;;10.70;5.33;;;11.70;99.90;;;;;;20912268;28;20009;-82
2021/09/02 04:58:15;;;;;;;9.50;5.20;;;11.80;99.90;;;;;;20877481;28;20059;-85
2021/09/02 05:08:15;;;;;;;7.18;4.88;;;11.60;99.90;;;;;;20894920;28;20038;-82
2021/09/02 05:18:16;;;;;;;8.33;5.10;;;11.60;99.90;;;;;;20876930;28;20037;-80
2021/09/02 05:28:17;;;;;;;10.00;5.60;;;11.60;99.90;;;;;;20905348;28;20041;-81
2021/09/02 05:38:18;;;;;;;8.47;5.27;;;11.50;99.90;;;;;;20918519;22;20542;-76
2021/09/02 05:48:19;;;;;;;8.87;5.67;;;12.00;99.90;;;;;;20933033;28;20033;-75
2021/09/02 05:58:20;;;;;;;9.03;5.90;;;12.20;99.90;;;;;;20900717;28;20641;-77
2021/09/02 06:08:21;;;;;;;10.55;5.82;;;12.40;99.90;;;;;;20901072;28;20033;-77
2021/09/02 06:18:22;;;;;;;11.47;6.47;;;12.50;99.90;;;;;;20916359;28;20044;-77
2021/09/02 06:28:23;;;;;;;9.97;5.50;;;13.10;99.90;;;;;;20897634;28;20037;-76
2021/09/02 06:38:23;;;;;;;8.87;6.00;;;13.20;99.90;;;;;;20913647;28;20033;-77
2021/09/02 06:48:24;;;;;;;8.43;4.93;;;13.80;99.90;;;;;;20913955;28;20390;-77
2021/09/02 06:58:25;;;;;;;12.70;5.50;;;14.70;99.90;;;;;;20913160;28;20053;-76
2021/09/02 07:08:26;;;;;;;9.57;5.10;;;15.00;99.90;;;;;;20894392;28;20037;-75
2021/09/02 07:18:27;;;;;;;9.40;5.70;;;15.70;99.90;;;;;;20911660;28;20389;-75
2021/09/02 07:28:27;;;;;;;13.13;5.13;;;16.00;99.90;;;;;;20893057;28;20112;-75
2021/09/02 07:38:28;;;;;;;7.27;5.10;;;17.50;99.90;;;;;;20910022;28;20448;-75
2021/09/02 07:48:29;;;;;;;11.60;5.23;;;18.00;99.90;;;;;;20907035;28;20092;-76
2021/09/02 07:58:30;;;;;;;10.87;5.30;;;17.80;99.90;;;;;;20975570;28;20031;-76
2021/09/02 08:08:31;;;;;;;9.10;4.87;;;18.20;99.90;;;;;;20907962;28;20063;-76
2021/09/02 08:18:32;;;;;;;6.90;4.33;;;19.50;99.90;;;;;;20940082;28;20059;-76
2021/09/02 08:28:33;;;;;;;8.30;4.63;;;20.10;99.90;;;;;;20990142;28;20028;-76
2021/09/02 08:38:40;;;;;;;7.40;4.80;;;19.90;99.90;;;;;;20923014;28;20128;-76
2021/09/02 08:48:47;;;;;;;6.70;4.80;;;20.80;99.90;;;;;;20906214;28;20044;-76
2021/09/02 08:58:48;;;;;;;8.63;3.90;;;21.00;99.90;;;;;;20912459;28;20033;-76
2021/09/02 09:08:48;;;;;;;6.53;4.17;;;22.00;99.90;;;;;;20921476;28;20036;-76
2021/09/02 09:18:49;;;;;;;8.67;4.47;;;22.20;99.90;;;;;;20917994;28;20029;-76
2021/09/02 09:28:51;;;;;;;7.13;4.13;;;22.80;99.90;;;;;;20919035;28;20029;-76
2021/09/02 09:38:58;;;;;;;37.20;7.93;;;22.30;99.90;;;;;;20901915;28;20036;-77
2021/09/02 09:48:58;;;;;;;25.48;6.15;;;23.60;99.90;;;;;;20918695;28;20036;-77
2021/09/02 09:59:02;;;;;;;7.87;3.83;;;24.10;99.90;;;;;;20917999;28;20056;-77
2021/09/02 10:09:03;;;;;;;5.70;3.80;;;24.40;99.90;;;;;;20899172;28;20045;-77
2021/09/02 10:19:05;;;;;;;11.02;4.53;;;24.70;99.90;;;;;;20916420;28;20540;-77
2021/09/02 10:29:33;;;;;;;12.27;4.10;;;24.50;99.90;;;;;;20915575;28;20028;-76
2021/09/02 10:39:41;;;;;;;5.32;3.50;;;24.90;99.90;;;;;;20907228;28;20049;-76
2021/09/02 10:49:42;;;;;;;6.00;3.55;;;25.70;99.90;;;;;;20913919;28;20029;-76
2021/09/02 10:59:51;;;;;;;;;;;25.40;99.90;;;;;;20913590;28;20040;-76
2021/09/02 11:09:51;;;;;;;5.20;3.83;;;25.70;99.90;;;;;;20912338;28;19988;-76
2021/09/02 11:19:52;;;;;;;5.45;3.72;;;25.70;99.90;;;;;;20893336;28;20075;-77
2021/09/02 11:29:53;;;;;;;4.47;3.22;;;26.50;99.90;;;;;;20910777;28;20086;-76
2021/09/02 11:39:54;;;;;;;5.28;3.42;;;26.30;99.90;;;;;;20912349;22;20041;-75
2021/09/02 11:49:59;;;;;;;4.53;3.38;;;26.40;99.90;;;;;;20893061;28;20499;-76
2021/09/02 12:00:00;;;;;;;8.48;3.65;;;26.50;99.90;;;;;;20828204;28;20025;-75
2021/09/02 12:10:02;;;;;;;6.53;3.38;;;26.50;99.90;;;;;;20823172;28;20091;-75
2021/09/02 12:20:04;;;;;;;7.38;3.65;;;26.90;99.90;;;;;;20832997;28;20030;-75
2021/09/02 12:30:06;;;;;;;7.95;3.55;;;27.70;99.90;;;;;;20829869;28;20518;-74
2021/09/02 12:40:21;;;;;;;4.43;3.17;;;26.90;99.90;;;;;;20827320;28;20403;-75
2021/09/02 12:50:22;;;;;;;5.18;3.55;;;26.40;99.90;;;;;;20842657;28;20455;-74
2021/09/02 13:00:34;;;;;;;4.75;3.03;;;27.00;99.90;;;;;;20880076;28;20071;-74
2021/09/02 13:10:40;;;;;;;7.55;3.33;;;27.20;99.90;;;;;;20858829;28;20037;-75
2021/09/02 13:20:40;;;;;;;5.07;3.60;;;27.30;99.90;;;;;;20857344;28;20048;-74
2021/09/02 13:30:41;;;;;;;5.85;3.60;;;27.40;99.90;;;;;;20837988;28;20041;-73
2021/09/02 13:40:43;;;;;;;7.50;3.90;;;27.30;99.90;;;;;;20838519;28;20037;-73
2021/09/02 13:50:44;;;;;;;7.05;3.40;;;27.60;99.90;;;;;;20837062;28;20064;-73
2021/09/02 14:00:45;;;;;;;4.90;3.60;;;26.90;99.90;;;;;;20844986;28;20033;-74
2021/09/02 14:10:46;;;;;;;5.78;3.67;;;27.40;99.90;;;;;;20840351;28;20034;-76
2021/09/02 14:20:47;;;;;;;8.18;3.30;;;27.10;99.90;;;;;;20802987;28;20033;-76
2021/09/02 14:30:50;;;;;;;7.85;3.70;;;27.60;99.90;;;;;;20812855;28;20042;-75
2021/09/02 14:40:51;;;;;;;5.80;3.88;;;27.40;99.90;;;;;;20844968;28;20183;-74
2021/09/02 14:50:56;;;;;;;5.45;3.50;;;27.10;99.90;;;;;;20876699;28;20411;-74
2021/09/02 15:00:57;;;;;;;5.75;3.88;;;27.30;99.90;;;;;;20865232;28;20591;-74
2021/09/02 15:10:58;;;;;;;4.95;3.33;;;27.40;99.90;;;;;;20849859;28;20041;-74
2021/09/02 15:20:59;;;;;;;6.32;3.53;;;27.40;99.90;;;;;;20804887;28;20048;-75
2021/09/02 15:31:02;;;;;;;8.50;3.63;;;27.20;99.90;;;;;;20790874;28;20034;-75
2021/09/02 15:41:03;;;;;;;5.72;3.50;;;27.10;99.90;;;;;;20819364;28;20541;-74
2021/09/02 15:51:04;;;;;;;5.50;3.53;;;26.90;99.90;;;;;;20809531;28;20032;-75
2021/09/02 16:01:05;;;;;;;6.97;3.60;;;26.00;99.90;;;;;;20805694;28;20045;-74
2021/09/02 16:11:06;;;;;;;6.00;3.80;;;25.30;99.90;;;;;;20803689;28;20060;-75
2021/09/02 16:21:08;;;;;;;5.18;3.60;;;24.90;99.90;;;;;;20803903;28;20026;-74
2021/09/02 16:31:13;;;;;;;6.35;3.28;;;24.70;99.90;;;;;;20806910;28;20545;-74
2021/09/02 16:41:15;;;;;;;6.90;4.43;;;24.40;99.90;;;;;;20793941;28;20555;-74
2021/09/02 16:51:15;;;;;;;5.88;3.30;;;23.90;99.90;;;;;;20812133;28;20095;-75
2021/09/02 17:01:16;;;;;;;4.93;3.33;;;23.90;99.90;;;;;;20840708;28;20025;-75
2021/09/02 17:11:17;;;;;;;6.43;4.00;;;23.70;99.90;;;;;;20823243;28;20378;-74
2021/09/02 17:21:18;;;;;;;5.07;3.27;;;23.10;99.90;;;;;;20773402;28;20285;-74
2021/09/02 17:31:19;;;;;;;7.00;3.53;;;22.60;99.90;;;;;;20797754;28;20098;-74
2021/09/02 17:41:20;;;;;;;;;;;22.40;99.90;;;;;;20817349;28;20064;-74
2021/09/02 17:51:21;;;;;;;5.97;3.47;;;21.60;99.90;;;;;;20740912;28;20019;-73
2021/09/02 18:01:22;;;;;;;;;;;20.70;99.90;;;;;;20805728;28;20033;-76
2021/09/02 18:11:23;;;;;;;5.30;3.40;;;20.50;99.90;;;;;;20884307;28;19917;-76
2021/09/02 18:21:25;;;;;;;12.10;3.80;;;19.90;99.90;;;;;;20849863;28;20056;-75
2021/09/02 18:31:26;;;;;;;7.13;4.22;;;19.40;99.90;;;;;;20808643;28;20037;-74
2021/09/02 18:41:30;;;;;;;5.93;3.70;;;19.30;99.90;;;;;;20809999;28;20041;-75
2021/09/02 18:51:31;;;;;;;5.53;3.85;;;19.30;99.90;;;;;;20793649;28;20299;-74
2021/09/02 19:01:36;;;;;;;7.65;3.90;;;18.80;99.90;;;;;;20809351;28;20095;-76
2021/09/02 19:11:38;;;;;;;8.00;4.10;;;18.30;99.90;;;;;;20791807;28;20050;-75
2021/09/02 19:21:39;;;;;;;6.18;3.95;;;17.70;99.90;;;;;;20809654;28;20507;-75
2021/09/02 19:31:43;;;;;;;6.03;4.07;;;17.90;99.90;;;;;;20806846;28;20052;-74
2021/09/02 19:41:44;;;;;;;9.88;4.00;;;18.00;99.90;;;;;;20806962;28;20041;-74
2021/09/02 19:51:45;;;;;;;5.40;3.97;;;17.90;99.90;;;;;;20805752;28;20260;-75
2021/09/02 20:01:49;;;;;;;7.30;4.03;;;17.60;99.90;;;;;;20810048;28;20037;-74
2021/09/02 20:11:51;;;;;;;8.30;4.43;;;17.40;99.90;;;;;;20830929;28;20056;-74
2021/09/02 20:21:56;;;;;;;6.70;4.15;;;17.30;99.90;;;;;;20913246;22;20649;-78
2021/09/02 20:31:57;;;;;;;9.02;4.63;;;17.10;99.90;;;;;;20832777;28;20041;-79
2021/09/02 20:42:04;;;;;;;6.90;3.97;;;17.00;99.90;;;;;;20807010;28;20037;-78
2021/09/02 20:52:08;;;;;;;7.05;4.30;;;16.90;99.90;;;;;;20824818;28;20045;-77
2021/09/02 21:02:12;;;;;;;7.57;4.40;;;16.80;99.90;;;;;;20891180;28;20470;-78
2021/09/02 21:12:18;;;;;;;7.35;4.43;;;16.90;99.90;;;;;;20892578;28;20041;-76
2021/09/02 21:22:25;;;;;;;8.85;4.13;;;16.60;99.90;;;;;;20835804;28;20041;-78
2021/09/02 21:32:32;;;;;;;8.68;4.63;;;16.50;99.90;;;;;;20817320;28;20057;-77
2021/09/02 21:42:45;;;;;;;7.15;4.18;;;16.50;99.90;;;;;;20833493;28;20044;-78
2021/09/02 21:52:48;;;;;;;6.63;4.32;;;16.30;99.90;;;;;;20815167;28;20086;-77
2021/09/02 22:02:50;;;;;;;9.05;5.15;;;16.10;99.90;;;;;;20820263;28;20185;-79
2021/09/02 22:12:52;;;;;;;6.63;4.40;;;16.10;99.90;;;;;;20841032;28;20480;-78
2021/09/02 22:22:56;;;;;;;6.77;4.33;;;15.90;99.90;;;;;;20838579;28;20554;-80
2021/09/02 22:33:02;;;;;;;7.15;4.63;;;15.80;99.90;;;;;;20814417;28;20041;-80
2021/09/02 22:43:05;;;;;;;12.02;4.72;;;15.70;99.90;;;;;;20808645;28;20503;-80
2021/09/02 22:53:06;;;;;;;6.53;4.60;;;15.50;99.90;;;;;;20851453;28;20041;-80
2021/09/02 23:03:07;;;;;;;7.27;4.77;;;15.30;99.90;;;;;;20849170;28;20041;-79
2021/09/02 23:13:17;;;;;;;8.73;5.10;;;15.10;99.90;;;;;;20849713;28;20488;-80
2021/09/02 23:23:21;;;;;;;7.10;4.60;;;15.10;99.90;;;;;;20757620;28;20191;-79
2021/09/02 23:33:23;;;;;;;7.68;4.72;;;15.10;99.90;;;;;;20765629;28;20041;-78
2021/09/02 23:43:28;;;;;;;8.88;5.25;;;15.20;99.90;;;;;;20763470;28;20065;-80
2021/09/02 23:53:31;;;;;;;8.55;4.78;;;14.90;99.90;;;;;;20764123;28;20551;-78
